createdAt,value
2023-01-10T00:00:35.416Z,7.80
2023-01-10T00:03:31.012Z,8.50
2023-01-10T00:05:58.857Z,8.60
2023-01-10T00:08:26.788Z,8.60
2023-01-10T00:10:54.702Z,8.00
2023-01-10T00:13:25.693Z,8.60
2023-01-10T00:15:56.006Z,8.10
2023-01-10T00:18:24.092Z,7.70
2023-01-10T00:20:51.936Z,6.70
2023-01-10T00:23:20.135Z,7.60
2023-01-10T00:25:48.257Z,7.50
2023-01-10T00:28:24.429Z,7.30
2023-01-10T00:31:01.533Z,8.50
2023-01-10T00:33:31.919Z,7.60
2023-01-10T00:36:00.818Z,8.00
2023-01-10T00:38:30.978Z,7.70
2023-01-10T00:40:59.339Z,7.80
2023-01-10T00:43:48.243Z,8.10
2023-01-10T00:46:16.313Z,7.80
2023-01-10T00:48:44.673Z,8.00
2023-01-10T00:51:12.769Z,8.10
2023-01-10T00:53:53.282Z,8.40
2023-01-10T00:56:36.692Z,7.90
2023-01-10T00:59:25.113Z,7.70
2023-01-10T01:01:59.238Z,7.60
2023-01-10T01:04:27.707Z,6.70
2023-01-10T01:06:55.749Z,7.70
2023-01-10T01:09:32.754Z,6.40
2023-01-10T01:12:00.909Z,6.20
2023-01-10T01:14:29.009Z,5.40
2023-01-10T01:19:30.728Z,4.40
2023-01-10T01:21:58.776Z,4.40
2023-01-10T01:24:27.153Z,4.30
2023-01-10T01:26:58.326Z,4.30
2023-01-10T01:29:32.403Z,4.00
2023-01-10T01:32:13.914Z,3.60
2023-01-10T01:34:42.081Z,3.10
2023-01-10T01:37:10.199Z,3.00
2023-01-10T01:39:40.842Z,3.60
2023-01-10T01:42:21.623Z,3.00
2023-01-10T01:45:11.494Z,3.40
2023-01-10T01:47:39.303Z,2.90
2023-01-10T01:50:14.823Z,3.10
2023-01-10T01:52:42.875Z,2.90
2023-01-10T01:55:11.602Z,2.70
2023-01-10T01:57:39.752Z,2.90
2023-01-10T02:00:08.798Z,3.40
2023-01-10T02:02:57.721Z,2.90
2023-01-10T02:05:31.932Z,3.00
2023-01-10T02:08:02.410Z,3.00
2023-01-10T02:11:09.216Z,3.40
2023-01-10T02:13:44.078Z,3.10
2023-01-10T02:16:15.712Z,2.50
2023-01-10T02:18:46.355Z,2.40
2023-01-10T02:21:26.980Z,2.70
2023-01-10T02:24:21.806Z,2.30
2023-01-10T02:27:10.472Z,2.40
2023-01-10T02:29:38.574Z,2.30
2023-01-10T02:32:13.196Z,2.40
2023-01-10T02:35:03.539Z,2.30
2023-01-10T02:37:50.743Z,2.40
2023-01-10T02:40:28.772Z,3.00
2023-01-10T02:43:12.215Z,2.70
2023-01-10T02:45:43.313Z,2.60
2023-01-10T02:50:39.897Z,3.00
2023-01-10T02:53:12.089Z,2.80
2023-01-10T02:55:52.314Z,2.70
2023-01-10T02:58:50.685Z,2.90
2023-01-10T03:01:22.040Z,2.90
2023-01-10T03:04:01.678Z,2.80
2023-01-10T03:06:59.701Z,2.70
2023-01-10T03:09:34.595Z,2.80
2023-01-10T03:12:22.042Z,2.40
2023-01-10T03:14:54.399Z,2.70
2023-01-10T03:17:23.707Z,3.40
2023-01-10T03:19:55.777Z,2.80
2023-01-10T03:22:28.564Z,3.10
2023-01-10T03:25:07.296Z,3.50
2023-01-10T03:28:05.288Z,3.70
2023-01-10T03:30:42.829Z,3.50
2023-01-10T03:33:11.863Z,2.80
2023-01-10T03:36:03.327Z,2.80
2023-01-10T03:38:43.924Z,3.50
2023-01-10T03:41:21.042Z,3.30
2023-01-10T03:44:34.064Z,3.30
2023-01-10T03:47:10.072Z,3.40
2023-01-10T03:52:58.802Z,2.60
2023-01-10T03:55:28.178Z,3.20
2023-01-10T03:57:56.307Z,3.80
2023-01-10T04:00:26.277Z,2.50
2023-01-10T04:02:54.505Z,2.60
2023-01-10T04:05:22.731Z,2.30
2023-01-10T04:07:51.082Z,2.50
2023-01-10T04:10:19.192Z,3.40
2023-01-10T04:12:47.162Z,2.60
2023-01-10T04:15:15.224Z,3.10
2023-01-10T04:17:43.561Z,2.90
2023-01-10T04:20:11.958Z,2.40
2023-01-10T04:22:51.264Z,3.00
2023-01-10T04:25:28.097Z,2.90
2023-01-10T04:27:56.442Z,2.60
2023-01-10T04:30:24.397Z,2.70
2023-01-10T04:32:52.395Z,3.10
2023-01-10T04:35:20.610Z,3.00
2023-01-10T04:37:51.765Z,3.00
2023-01-10T04:40:23.557Z,2.90
2023-01-10T04:42:54.333Z,2.60
2023-01-10T04:45:25.681Z,3.70
2023-01-10T04:47:56.232Z,3.60
2023-01-10T04:50:24.215Z,3.00
2023-01-10T04:52:52.857Z,3.20
2023-01-10T04:55:20.992Z,3.60
2023-01-10T04:57:49.166Z,2.90
2023-01-10T05:00:17.641Z,3.10
2023-01-10T05:02:45.578Z,5.30
2023-01-10T05:05:14.382Z,3.40
2023-01-10T05:08:02.792Z,3.40
2023-01-10T05:13:01.862Z,3.60
2023-01-10T05:15:29.728Z,3.80
2023-01-10T05:17:59.125Z,3.10
2023-01-10T05:20:29.761Z,3.60
2023-01-10T05:22:57.873Z,3.80
2023-01-10T05:25:25.752Z,3.80
2023-01-10T05:27:53.871Z,3.40
2023-01-10T05:30:22.004Z,3.50
2023-01-10T05:32:50.003Z,3.80
2023-01-10T05:35:21.437Z,5.80
2023-01-10T05:37:52.748Z,4.30
2023-01-10T05:40:20.805Z,3.50
2023-01-10T05:42:48.741Z,3.80
2023-01-10T05:45:26.238Z,3.70
2023-01-10T05:48:02.902Z,5.70
2023-01-10T05:50:31.787Z,5.80
2023-01-10T05:53:05.926Z,9.10
2023-01-10T05:55:34.148Z,16.00
2023-01-10T05:58:02.259Z,16.90
2023-01-10T06:00:36.145Z,9.50
2023-01-10T06:05:34.678Z,8.70
2023-01-10T06:08:02.617Z,13.60
2023-01-10T06:10:30.711Z,13.80
2023-01-10T06:12:58.782Z,8.90
2023-01-10T06:15:28.184Z,7.50
2023-01-10T06:17:56.269Z,10.00
2023-01-10T06:20:24.316Z,8.30
2023-01-10T06:22:52.611Z,11.70
2023-01-10T06:25:20.972Z,24.50
2023-01-10T06:27:49.024Z,16.50
2023-01-10T06:30:22.657Z,29.60
2023-01-10T06:32:50.657Z,18.10
2023-01-10T06:35:18.807Z,13.50
2023-01-10T06:37:46.910Z,9.90
2023-01-10T06:40:15.244Z,6.60
2023-01-10T06:42:43.324Z,7.40
2023-01-10T06:45:22.845Z,10.20
2023-01-10T06:47:50.937Z,15.00
2023-01-10T06:50:19.072Z,12.30
2023-01-10T06:52:47.292Z,10.90
2023-01-10T06:55:15.458Z,7.10
2023-01-10T06:57:44.054Z,10.20
2023-01-10T07:00:12.475Z,11.80
2023-01-10T07:02:40.455Z,7.80
2023-01-10T07:05:11.855Z,8.20
2023-01-10T07:07:39.929Z,7.50
2023-01-10T07:10:08.409Z,6.90
2023-01-10T07:12:36.363Z,8.80
2023-01-10T07:15:05.057Z,16.30
2023-01-10T07:17:33.132Z,6.60
2023-01-10T07:20:01.216Z,5.80
2023-01-10T07:22:29.275Z,7.70
2023-01-10T07:24:57.227Z,6.50
2023-01-10T07:27:25.298Z,19.40
2023-01-10T07:29:53.478Z,8.90
2023-01-10T07:32:21.539Z,7.30
2023-01-10T07:34:49.433Z,6.00
2023-01-10T07:37:17.480Z,6.40
2023-01-10T07:39:45.555Z,5.90
2023-01-10T07:42:13.492Z,8.40
2023-01-10T07:44:41.803Z,8.00
2023-01-10T07:47:09.871Z,9.00
2023-01-10T07:49:37.871Z,9.20
2023-01-10T07:52:08.064Z,14.00
2023-01-10T07:54:36.140Z,7.30
2023-01-10T07:57:04.236Z,6.10
2023-01-10T07:59:32.167Z,5.40
2023-01-10T08:02:00.155Z,4.90
2023-01-10T08:04:28.422Z,7.70
2023-01-10T08:06:56.504Z,5.40
2023-01-10T08:09:24.678Z,7.50
2023-01-10T08:11:52.747Z,5.30
2023-01-10T08:14:21.006Z,5.90
2023-01-10T08:16:49.224Z,7.30
2023-01-10T08:19:22.893Z,5.80
2023-01-10T08:21:50.793Z,5.20
2023-01-10T08:24:19.037Z,7.20
2023-01-10T08:26:49.869Z,9.00
2023-01-10T08:29:27.506Z,8.10
2023-01-10T08:31:55.847Z,12.80
2023-01-10T08:34:24.431Z,11.30
2023-01-10T08:36:53.013Z,9.70
2023-01-10T08:39:26.620Z,6.50
2023-01-10T08:41:54.993Z,6.70
2023-01-10T08:44:23.419Z,9.90
2023-01-10T08:47:03.042Z,9.60
2023-01-10T08:49:34.154Z,6.40
2023-01-10T08:52:02.767Z,6.80
2023-01-10T08:54:31.061Z,5.90
2023-01-10T08:56:59.963Z,5.90
2023-01-10T08:59:30.869Z,4.00
2023-01-10T09:02:00.090Z,6.30
2023-01-10T09:04:29.872Z,6.40
2023-01-10T09:06:58.747Z,5.20
2023-01-10T09:09:27.259Z,4.10
2023-01-10T09:11:57.797Z,8.20
2023-01-10T09:14:26.079Z,11.20
2023-01-10T09:16:57.002Z,5.40
2023-01-10T09:19:25.223Z,4.70
2023-01-10T09:21:53.348Z,5.20
2023-01-10T09:24:21.833Z,12.00
2023-01-10T09:29:31.563Z,5.30
2023-01-10T09:31:59.600Z,4.50
2023-01-10T09:34:27.809Z,5.00
2023-01-10T09:36:55.913Z,5.70
2023-01-10T09:39:46.089Z,5.70
2023-01-10T09:42:44.452Z,5.70
2023-01-10T09:45:54.510Z,10.90
2023-01-10T09:48:44.442Z,5.00
2023-01-10T09:52:05.417Z,4.90
2023-01-10T09:54:44.113Z,4.60
2023-01-10T09:57:26.409Z,13.40
2023-01-10T10:00:02.439Z,8.10
2023-01-10T10:02:44.832Z,10.10
2023-01-10T10:05:27.847Z,8.40
2023-01-10T10:08:02.435Z,6.00
2023-01-10T10:11:02.782Z,9.40
2023-01-10T10:13:59.909Z,4.70
2023-01-10T10:16:51.286Z,5.80
2023-01-10T10:19:27.754Z,5.70
2023-01-10T10:22:34.281Z,6.10
2023-01-10T10:25:43.889Z,6.60
2023-01-10T10:28:58.311Z,7.00
2023-01-10T10:31:59.570Z,8.10
2023-01-10T10:34:38.790Z,7.00
2023-01-10T10:37:50.175Z,6.80
2023-01-10T10:40:20.723Z,6.20
2023-01-10T10:43:13.985Z,8.00
2023-01-10T10:45:57.461Z,5.90
2023-01-10T10:48:39.281Z,6.50
2023-01-10T10:51:47.992Z,7.70
2023-01-10T10:54:36.439Z,5.20
2023-01-10T10:57:13.399Z,5.50
2023-01-10T11:00:05.452Z,8.60
2023-01-10T11:02:53.745Z,6.00
2023-01-10T11:05:44.750Z,6.40
2023-01-10T11:08:17.614Z,9.90
2023-01-10T11:11:08.625Z,11.10
2023-01-10T11:14:20.058Z,6.60
2023-01-10T11:16:48.288Z,6.20
2023-01-10T11:21:50.654Z,6.70
2023-01-10T11:24:21.468Z,8.50
2023-01-10T11:27:04.422Z,6.30
2023-01-10T11:29:51.660Z,10.20
2023-01-10T11:32:53.024Z,6.60
2023-01-10T11:35:29.197Z,4.60
2023-01-10T11:38:30.013Z,4.10
2023-01-10T11:41:02.606Z,4.90
2023-01-10T11:44:13.589Z,5.00
2023-01-10T11:47:08.475Z,4.50
2023-01-10T11:49:45.264Z,3.90
2023-01-10T11:52:37.352Z,5.70
2023-01-10T11:55:08.297Z,10.40
2023-01-10T11:57:56.817Z,5.80
2023-01-10T12:00:47.493Z,6.20
2023-01-10T12:03:19.171Z,16.50
2023-01-10T12:05:52.906Z,12.70
2023-01-10T12:08:27.085Z,12.30
2023-01-10T12:11:02.318Z,11.90
2023-01-10T12:13:44.878Z,7.10
2023-01-10T12:16:23.942Z,9.40
2023-01-10T12:18:53.258Z,6.80
2023-01-10T12:21:44.963Z,5.30
2023-01-10T12:24:19.699Z,6.70
2023-01-10T12:26:50.963Z,7.60
2023-01-10T12:29:23.955Z,6.60
2023-01-10T12:31:53.468Z,12.30
2023-01-10T12:34:27.111Z,9.20
2023-01-10T12:37:00.694Z,8.10
2023-01-10T12:39:34.873Z,7.20
2023-01-10T12:42:49.467Z,7.30
2023-01-10T12:45:24.795Z,6.90
2023-01-10T12:47:55.199Z,7.10
2023-01-10T12:54:05.079Z,8.80
2023-01-10T12:56:43.444Z,6.60
2023-01-10T12:59:37.921Z,8.80
2023-01-10T13:02:31.488Z,7.40
2023-01-10T13:05:04.059Z,6.70
2023-01-10T13:08:11.039Z,17.10
2023-01-10T13:10:50.612Z,28.20
2023-01-10T13:13:38.110Z,12.10
2023-01-10T13:16:17.870Z,10.00
2023-01-10T13:19:04.971Z,22.00
2023-01-10T13:21:33.323Z,35.70
2023-01-10T13:24:20.168Z,148.40
2023-01-10T13:26:46.962Z,115.10
2023-01-10T13:29:18.351Z,48.00
2023-01-10T13:31:45.403Z,10.90
2023-01-10T13:34:15.779Z,8.90
2023-01-10T13:36:50.127Z,59.80
2023-01-10T13:39:24.986Z,27.10
2023-01-10T13:42:15.382Z,23.10
2023-01-10T13:45:01.871Z,15.20
2023-01-10T13:47:43.847Z,23.80
2023-01-10T13:50:33.140Z,20.60
2023-01-10T13:53:03.774Z,66.00
2023-01-10T13:55:33.688Z,13.40
2023-01-10T13:58:09.443Z,37.80
2023-01-10T14:00:54.690Z,19.20
2023-01-10T14:03:37.121Z,22.90
2023-01-10T14:06:19.321Z,15.70
2023-01-10T14:08:53.648Z,15.90
2023-01-10T14:11:41.068Z,13.20
2023-01-10T14:14:17.281Z,14.20
2023-01-10T14:17:07.134Z,21.00
2023-01-10T14:19:36.616Z,12.50
2023-01-10T14:22:06.636Z,17.40
2023-01-10T14:24:44.948Z,16.10
2023-01-10T14:27:22.246Z,29.10
2023-01-10T14:29:59.307Z,22.30
2023-01-10T14:32:37.777Z,16.50
2023-01-10T14:35:39.024Z,13.10
2023-01-10T14:38:16.012Z,17.90
2023-01-10T14:41:08.120Z,22.10
2023-01-10T14:43:54.203Z,20.30
2023-01-10T14:46:39.877Z,189.80
2023-01-10T14:49:39.074Z,126.90
2023-01-10T14:52:37.974Z,56.50
2023-01-10T14:55:28.075Z,39.80
2023-01-10T14:58:08.106Z,66.50
2023-01-10T15:00:37.469Z,61.00
2023-01-10T15:03:15.039Z,57.00
2023-01-10T15:05:49.837Z,30.90
2023-01-10T15:08:56.879Z,30.40
2023-01-10T15:11:27.470Z,18.40
2023-01-10T15:14:00.231Z,136.20
2023-01-10T15:16:28.004Z,74.00
2023-01-10T15:18:57.622Z,92.30
2023-01-10T15:21:45.235Z,55.20
2023-01-10T15:24:32.953Z,49.80
2023-01-10T15:27:11.235Z,32.70
2023-01-10T15:29:44.008Z,54.20
2023-01-10T15:32:11.680Z,42.60
2023-01-10T15:34:43.987Z,39.40
2023-01-10T15:37:33.243Z,47.50
2023-01-10T15:40:01.211Z,133.90
2023-01-10T15:42:28.208Z,46.60
2023-01-10T15:44:55.745Z,31.90
2023-01-10T15:47:40.864Z,35.00
2023-01-10T15:50:21.768Z,49.20
2023-01-10T15:52:53.129Z,19.70
2023-01-10T15:55:40.289Z,21.80
2023-01-10T15:58:16.132Z,34.00
2023-01-10T16:00:46.674Z,99.80
2023-01-10T16:03:22.101Z,87.60
2023-01-10T16:05:50.240Z,63.30
2023-01-10T16:08:21.402Z,66.60
2023-01-10T16:13:27.418Z,33.50
2023-01-10T16:16:10.773Z,30.40
2023-01-10T16:18:57.674Z,16.90
2023-01-10T16:21:26.495Z,38.10
2023-01-10T16:23:53.351Z,22.90
2023-01-10T16:26:19.969Z,12.30
2023-01-10T16:28:49.546Z,14.20
2023-01-10T16:31:19.303Z,41.10
2023-01-10T16:33:45.922Z,16.80
2023-01-10T16:36:17.075Z,13.80
2023-01-10T16:38:44.404Z,10.30
2023-01-10T16:41:30.644Z,10.10
2023-01-10T16:43:57.466Z,11.10
2023-01-10T16:46:24.305Z,18.50
2023-01-10T16:49:13.878Z,13.70
2023-01-10T16:51:44.223Z,28.20
2023-01-10T16:54:17.011Z,25.40
2023-01-10T16:56:44.709Z,30.60
2023-01-10T16:59:11.915Z,23.50
2023-01-10T17:01:45.873Z,21.40
2023-01-10T17:04:20.193Z,12.90
2023-01-10T17:06:47.135Z,8.20
2023-01-10T17:09:19.256Z,15.30
2023-01-10T17:11:46.017Z,11.10
2023-01-10T17:14:24.383Z,5.50
2023-01-10T17:16:54.783Z,9.00
2023-01-10T17:19:30.387Z,12.90
2023-01-10T17:22:07.412Z,5.80
2023-01-10T17:24:34.303Z,7.10
2023-01-10T17:27:01.043Z,5.30
2023-01-10T17:29:29.719Z,7.30
2023-01-10T17:31:56.700Z,7.80
2023-01-10T17:34:38.857Z,8.60
2023-01-10T17:37:11.397Z,8.80
2023-01-10T17:39:38.710Z,8.10
2023-01-10T17:42:06.077Z,9.30
2023-01-10T17:44:32.904Z,11.40
2023-01-10T17:46:59.642Z,9.70
2023-01-10T17:49:26.404Z,8.90
2023-01-10T17:51:54.094Z,17.10
2023-01-10T17:54:21.494Z,11.30
2023-01-10T17:56:48.122Z,9.10
2023-01-10T17:59:17.227Z,9.10
2023-01-10T18:01:43.872Z,8.80
2023-01-10T18:04:13.891Z,9.30
2023-01-10T18:06:45.534Z,9.10
2023-01-10T18:09:24.661Z,9.20
2023-01-10T18:11:51.482Z,8.10
2023-01-10T18:14:36.475Z,10.50
2023-01-10T18:17:10.754Z,9.40
2023-01-10T18:19:37.363Z,8.20
2023-01-10T18:22:23.836Z,27.40
2023-01-10T18:24:51.805Z,20.80
2023-01-10T18:27:18.443Z,47.90
2023-01-10T18:29:45.115Z,24.10
2023-01-10T18:32:12.038Z,37.00
2023-01-10T18:34:49.503Z,36.40
2023-01-10T18:37:26.216Z,36.70
2023-01-10T18:39:55.390Z,59.50
2023-01-10T18:42:22.130Z,43.90
2023-01-10T18:44:56.105Z,44.00
2023-01-10T18:47:22.968Z,29.90
2023-01-10T18:49:49.647Z,26.90
2023-01-10T18:52:20.545Z,29.70
2023-01-10T18:54:51.448Z,26.90
2023-01-10T18:57:27.911Z,16.40
2023-01-10T18:59:54.624Z,21.00
2023-01-10T19:02:21.389Z,18.10
2023-01-10T19:04:48.438Z,16.80
2023-01-10T19:07:15.135Z,16.70
2023-01-10T19:09:41.783Z,18.10
2023-01-10T19:12:08.313Z,12.50
2023-01-10T19:14:35.068Z,13.90
2023-01-10T19:17:04.552Z,9.40
2023-01-10T19:19:31.301Z,10.30
2023-01-10T19:21:57.853Z,7.80
2023-01-10T19:24:27.028Z,7.00
2023-01-10T19:26:54.196Z,6.30
2023-01-10T19:29:20.959Z,6.80
2023-01-10T19:31:49.213Z,22.30
2023-01-10T19:34:16.823Z,18.00
2023-01-10T19:36:45.001Z,16.00
2023-01-10T19:39:12.083Z,11.40
2023-01-10T19:41:39.287Z,13.30
2023-01-10T19:44:07.712Z,10.90
2023-01-10T19:46:36.443Z,10.00
2023-01-10T19:49:07.126Z,8.00
2023-01-10T19:51:37.724Z,7.30
2023-01-10T19:54:07.759Z,6.30
2023-01-10T19:56:34.851Z,4.80
2023-01-10T19:59:01.773Z,6.30
2023-01-10T20:01:29.386Z,5.90
2023-01-10T20:03:57.562Z,5.70
2023-01-10T20:06:26.045Z,5.70
2023-01-10T20:08:55.865Z,6.00
2023-01-10T20:11:23.436Z,6.50
2023-01-10T20:13:50.564Z,5.10
2023-01-10T20:16:21.190Z,5.10
2023-01-10T20:18:48.482Z,15.20
2023-01-10T20:21:16.563Z,8.40
2023-01-10T20:23:46.280Z,9.00
2023-01-10T20:26:20.437Z,8.90
2023-01-10T20:28:47.916Z,6.80
2023-01-10T20:31:16.345Z,5.70
2023-01-10T20:33:43.056Z,5.70
2023-01-10T20:36:36.601Z,5.50
2023-01-10T20:39:03.333Z,5.20
2023-01-10T20:41:30.735Z,5.80
2023-01-10T20:44:13.852Z,5.80
2023-01-10T20:47:11.011Z,5.60
2023-01-10T20:50:08.542Z,5.70
2023-01-10T20:52:35.254Z,5.40
2023-01-10T20:55:02.133Z,5.70
2023-01-10T20:57:28.994Z,5.40
2023-01-10T20:59:55.475Z,7.40
2023-01-10T21:02:22.040Z,6.00
2023-01-10T21:04:50.533Z,5.30
2023-01-10T21:07:17.286Z,5.20
2023-01-10T21:09:43.983Z,6.00
2023-01-10T21:12:22.913Z,7.60
2023-01-10T21:14:53.159Z,8.40
2023-01-10T21:17:21.166Z,7.80
2023-01-10T21:19:47.802Z,8.90
2023-01-10T21:22:14.348Z,8.80
2023-01-10T21:24:42.236Z,10.40
2023-01-10T21:27:09.136Z,10.10
2023-01-10T21:29:35.779Z,9.40
2023-01-10T21:32:02.649Z,7.60
2023-01-10T21:34:29.406Z,6.10
2023-01-10T21:36:56.368Z,6.30
2023-01-10T21:39:23.168Z,5.90
2023-01-10T21:42:08.554Z,5.80
2023-01-10T21:44:35.261Z,6.30
2023-01-10T21:47:02.178Z,6.50
2023-01-10T21:49:38.072Z,5.80
2023-01-10T21:55:24.174Z,5.90
2023-01-10T21:57:54.529Z,6.80
2023-01-10T22:00:22.970Z,6.80
2023-01-10T22:02:51.049Z,6.80
2023-01-10T22:05:22.402Z,7.40
2023-01-10T22:07:52.901Z,6.90
2023-01-10T22:10:24.105Z,7.90
2023-01-10T22:12:52.449Z,8.20
2023-01-10T22:15:20.944Z,6.90
2023-01-10T22:17:49.104Z,8.80
2023-01-10T22:20:17.374Z,7.80
2023-01-10T22:22:45.347Z,7.10
2023-01-10T22:25:13.319Z,7.40
2023-01-10T22:27:42.958Z,7.50
2023-01-10T22:30:12.931Z,5.90
2023-01-10T22:32:40.938Z,6.60
2023-01-10T22:35:08.985Z,7.20
2023-01-10T22:37:36.912Z,7.50
2023-01-10T22:40:05.223Z,7.10
2023-01-10T22:42:33.280Z,8.40
2023-01-10T22:45:01.269Z,6.60
2023-01-10T22:47:29.443Z,6.50
2023-01-10T22:49:57.394Z,5.40
2023-01-10T22:52:25.262Z,6.70
2023-01-10T22:55:00.933Z,7.10
2023-01-10T22:57:33.034Z,6.50
2023-01-10T23:00:05.511Z,6.50
2023-01-10T23:02:41.970Z,6.60
2023-01-10T23:05:10.111Z,7.50
2023-01-10T23:07:38.025Z,6.40
2023-01-10T23:10:17.312Z,6.50
2023-01-10T23:12:55.159Z,8.00
2023-01-10T23:15:23.337Z,7.40
2023-01-10T23:17:51.504Z,6.90
2023-01-10T23:20:19.525Z,10.60
2023-01-10T23:22:47.498Z,10.60
2023-01-10T23:25:15.580Z,8.80
2023-01-10T23:27:43.548Z,6.60
2023-01-10T23:30:21.519Z,6.20
2023-01-10T23:32:51.295Z,5.70
2023-01-10T23:35:26.842Z,7.20
2023-01-10T23:37:57.256Z,6.90
2023-01-10T23:40:25.372Z,7.70
2023-01-10T23:42:53.575Z,10.60
2023-01-10T23:45:21.665Z,10.00
2023-01-10T23:47:49.689Z,9.40
2023-01-10T23:50:18.428Z,10.70
2023-01-10T23:52:46.818Z,14.40
2023-01-10T23:55:15.184Z,14.30
2023-01-10T23:57:43.539Z,14.20
